createdAt,value
2019-04-03T00:00:16.771Z,13.20
2019-04-03T00:02:43.873Z,13.20
2019-04-03T00:05:11.163Z,13.20
2019-04-03T00:07:38.615Z,13.20
2019-04-03T00:10:07.393Z,13.10
2019-04-03T00:12:35.006Z,13.10
2019-04-03T00:15:02.207Z,13.10
2019-04-03T00:17:29.668Z,13.10
2019-04-03T00:19:57.627Z,13.00
2019-04-03T00:22:24.955Z,13.00
2019-04-03T00:24:52.833Z,13.00
2019-04-03T00:27:21.973Z,13.00
2019-04-03T00:29:50.517Z,13.00
2019-04-03T00:32:18.553Z,12.90
2019-04-03T00:34:45.910Z,12.90
2019-04-03T00:37:13.183Z,12.90
2019-04-03T00:39:40.341Z,12.90
2019-04-03T00:42:07.609Z,12.90
2019-04-03T00:44:35.014Z,12.90
2019-04-03T00:47:02.511Z,12.90
2019-04-03T00:49:29.882Z,12.90
2019-04-03T00:51:58.017Z,12.90
2019-04-03T00:54:26.417Z,12.90
2019-04-03T00:56:56.105Z,12.80
2019-04-03T00:59:22.920Z,12.80
2019-04-03T01:01:50.430Z,12.80
2019-04-03T01:04:17.877Z,12.80
2019-04-03T01:06:45.251Z,12.80
2019-04-03T01:09:12.726Z,12.80
2019-04-03T01:11:40.107Z,12.80
2019-04-03T01:14:07.383Z,12.80
2019-04-03T01:16:34.645Z,12.80
2019-04-03T01:19:01.902Z,12.80
2019-04-03T01:21:30.186Z,12.70
2019-04-03T01:23:57.383Z,12.70
2019-04-03T01:26:24.642Z,12.60
2019-04-03T01:28:51.886Z,12.60
2019-04-03T01:31:19.359Z,12.60
2019-04-03T01:33:47.197Z,12.50
2019-04-03T01:36:17.219Z,12.50
2019-04-03T01:38:43.689Z,12.50
2019-04-03T01:41:11.017Z,12.50
2019-04-03T01:43:39.256Z,12.50
2019-04-03T01:46:06.898Z,12.40
2019-04-03T01:48:34.151Z,12.40
2019-04-03T01:51:01.367Z,12.40
2019-04-03T01:53:28.847Z,12.40
2019-04-03T01:55:56.236Z,12.40
2019-04-03T01:58:23.357Z,12.30
2019-04-03T02:00:50.508Z,12.30
2019-04-03T02:03:17.866Z,12.30
2019-04-03T02:05:45.227Z,12.20
2019-04-03T02:08:14.158Z,12.20
2019-04-03T02:10:41.752Z,12.20
2019-04-03T02:13:09.070Z,12.20
2019-04-03T02:15:36.433Z,12.20
2019-04-03T02:18:03.832Z,12.10
2019-04-03T02:20:30.996Z,12.10
2019-04-03T02:23:00.262Z,12.10
2019-04-03T02:25:27.715Z,12.10
2019-04-03T02:27:55.158Z,12.00
2019-04-03T02:30:22.674Z,12.00
2019-04-03T02:32:49.933Z,11.90
2019-04-03T02:35:17.122Z,11.90
2019-04-03T02:37:46.112Z,11.80
2019-04-03T02:40:13.326Z,11.80
2019-04-03T02:42:41.980Z,11.80
2019-04-03T02:45:09.827Z,11.70
2019-04-03T02:47:37.305Z,11.70
2019-04-03T02:50:04.810Z,11.60
2019-04-03T02:52:32.038Z,11.50
2019-04-03T02:54:59.354Z,11.50
2019-04-03T02:57:26.567Z,11.40
2019-04-03T02:59:58.256Z,11.40
2019-04-03T03:02:23.454Z,11.40
2019-04-03T03:04:53.918Z,11.30
2019-04-03T03:07:20.042Z,11.20
2019-04-03T03:09:47.803Z,11.20
2019-04-03T03:12:15.714Z,11.10
2019-04-03T03:14:43.243Z,11.10
2019-04-03T03:17:11.252Z,11.00
2019-04-03T03:19:39.007Z,11.00
2019-04-03T03:22:06.831Z,11.00
2019-04-03T03:24:34.471Z,10.90
2019-04-03T03:27:01.954Z,10.90
2019-04-03T03:29:29.430Z,10.80
2019-04-03T03:32:10.114Z,10.80
2019-04-03T03:34:49.252Z,10.80
2019-04-03T03:37:00.665Z,10.80
2019-04-03T03:39:25.623Z,10.70
2019-04-03T03:41:57.525Z,10.70
2019-04-03T03:44:25.091Z,10.60
2019-04-03T03:46:53.072Z,10.60
2019-04-03T03:49:21.121Z,10.60
2019-04-03T03:51:48.635Z,10.60
2019-04-03T03:54:18.459Z,10.50
2019-04-03T03:56:45.413Z,10.50
2019-04-03T03:59:16.369Z,10.50
2019-04-03T04:01:41.829Z,10.50
2019-04-03T04:04:12.986Z,10.50
2019-04-03T04:06:38.535Z,10.50
2019-04-03T04:09:06.415Z,10.50
2019-04-03T04:11:34.266Z,10.40
2019-04-03T04:14:01.543Z,10.40
2019-04-03T04:16:28.862Z,10.40
2019-04-03T04:18:57.753Z,10.40
2019-04-03T04:21:25.328Z,10.40
2019-04-03T04:23:56.047Z,10.40
2019-04-03T04:26:23.147Z,10.30
2019-04-03T04:28:50.474Z,10.30
2019-04-03T04:31:17.849Z,10.30
2019-04-03T04:33:47.979Z,10.30
2019-04-03T04:36:15.677Z,10.30
2019-04-03T04:38:43.040Z,10.30
2019-04-03T04:41:11.440Z,10.30
2019-04-03T04:43:39.395Z,10.20
2019-04-03T04:46:09.257Z,10.20
2019-04-03T04:48:36.354Z,10.20
2019-04-03T04:51:03.619Z,10.20
2019-04-03T04:53:31.103Z,10.20
2019-04-03T04:55:58.343Z,10.20
2019-04-03T04:58:25.562Z,10.20
2019-04-03T05:00:53.731Z,10.20
2019-04-03T05:03:21.840Z,10.10
2019-04-03T05:05:49.638Z,10.20
2019-04-03T05:08:16.979Z,10.20
2019-04-03T05:10:44.266Z,10.20
2019-04-03T05:13:11.507Z,10.20
2019-04-03T05:15:38.902Z,10.20
2019-04-03T05:18:06.046Z,10.10
2019-04-03T05:20:33.409Z,10.10
2019-04-03T05:23:01.110Z,10.10
2019-04-03T05:25:29.839Z,10.10
2019-04-03T05:27:57.783Z,10.10
2019-04-03T05:30:29.321Z,10.20
2019-04-03T05:32:56.852Z,10.20
2019-04-03T05:35:24.107Z,10.20
2019-04-03T05:37:51.725Z,10.20
2019-04-03T05:40:20.072Z,10.10
2019-04-03T05:42:47.528Z,10.10
2019-04-03T05:45:14.656Z,10.20
2019-04-03T05:47:42.031Z,10.10
2019-04-03T05:50:09.371Z,10.20
2019-04-03T05:52:36.445Z,10.20
2019-04-03T05:55:03.843Z,10.20
2019-04-03T05:57:31.581Z,10.20
2019-04-03T06:00:01.834Z,10.20
2019-04-03T06:02:28.405Z,10.20
2019-04-03T06:04:55.748Z,10.20
2019-04-03T06:07:23.175Z,10.20
2019-04-03T06:09:51.910Z,10.20
2019-04-03T06:12:20.493Z,10.20
2019-04-03T06:14:49.579Z,10.20
2019-04-03T06:17:16.878Z,10.20
2019-04-03T06:19:44.286Z,10.20
2019-04-03T06:22:11.888Z,10.30
2019-04-03T06:24:39.506Z,10.30
2019-04-03T06:27:09.081Z,10.30
2019-04-03T06:29:35.978Z,10.30
2019-04-03T06:32:05.794Z,10.30
2019-04-03T06:34:32.607Z,10.30
2019-04-03T06:36:59.957Z,10.30
2019-04-03T06:39:30.125Z,10.30
2019-04-03T06:41:56.256Z,10.40
2019-04-03T06:44:23.584Z,10.40
2019-04-03T06:46:53.682Z,10.50
2019-04-03T06:49:19.940Z,10.50
2019-04-03T06:51:48.712Z,10.50
2019-04-03T06:54:16.710Z,10.60
2019-04-03T06:56:44.076Z,10.60
2019-04-03T06:59:11.530Z,10.70
2019-04-03T07:01:38.973Z,10.70
2019-04-03T07:04:07.357Z,10.80
2019-04-03T07:06:34.452Z,10.90
2019-04-03T07:09:04.721Z,11.00
2019-04-03T07:11:31.399Z,11.00
2019-04-03T07:13:58.563Z,11.10
2019-04-03T07:16:26.805Z,11.10
2019-04-03T07:18:55.171Z,11.10
2019-04-03T07:21:22.745Z,11.20
2019-04-03T07:23:50.855Z,11.20
2019-04-03T07:26:18.080Z,11.30
2019-04-03T07:28:45.700Z,11.30
2019-04-03T07:31:13.151Z,11.40
2019-04-03T07:33:40.512Z,11.40
2019-04-03T07:36:10.206Z,11.50
2019-04-03T07:38:37.608Z,11.50
2019-04-03T07:41:05.153Z,11.50
2019-04-03T07:43:32.591Z,11.50
2019-04-03T07:46:00.043Z,11.60
2019-04-03T07:48:27.338Z,11.60
2019-04-03T07:50:54.694Z,11.70
2019-04-03T07:53:21.919Z,11.70
2019-04-03T07:55:49.353Z,11.80
2019-04-03T07:58:16.677Z,11.80
2019-04-03T08:00:44.161Z,11.90
2019-04-03T08:03:11.412Z,12.00
2019-04-03T08:05:38.647Z,12.00
2019-04-03T08:08:06.010Z,12.00
2019-04-03T08:10:33.492Z,11.90
2019-04-03T08:13:00.887Z,11.90
2019-04-03T08:15:28.142Z,11.90
2019-04-03T08:17:57.119Z,11.80
2019-04-03T08:20:26.032Z,11.80
2019-04-03T08:22:53.836Z,11.70
2019-04-03T08:25:22.289Z,11.70
2019-04-03T08:27:49.510Z,11.70
2019-04-03T08:30:16.847Z,11.60
2019-04-03T08:32:45.667Z,11.60
2019-04-03T08:35:21.838Z,11.60
2019-04-03T08:37:43.016Z,11.60
2019-04-03T08:40:10.631Z,11.60
2019-04-03T08:42:38.030Z,11.60
2019-04-03T08:45:07.132Z,11.60
2019-04-03T08:47:37.112Z,11.60
2019-04-03T08:50:04.535Z,11.60
2019-04-03T08:52:32.064Z,11.60
2019-04-03T08:54:59.407Z,11.50
2019-04-03T08:57:26.660Z,11.40
2019-04-03T08:59:53.873Z,11.50
2019-04-03T09:02:21.099Z,11.40
2019-04-03T09:04:48.776Z,11.60
2019-04-03T09:07:16.171Z,11.60
2019-04-03T09:09:43.940Z,11.60
2019-04-03T09:12:11.147Z,11.60
2019-04-03T09:14:38.628Z,11.60
2019-04-03T09:17:05.853Z,11.70
2019-04-03T09:19:33.153Z,11.60
2019-04-03T09:22:00.757Z,11.70
2019-04-03T09:24:29.658Z,11.80
2019-04-03T09:26:57.503Z,11.80
2019-04-03T09:29:24.715Z,11.80
2019-04-03T09:31:53.194Z,11.90
2019-04-03T09:34:21.094Z,12.00
2019-04-03T09:36:48.348Z,12.00
2019-04-03T09:39:15.898Z,12.10
2019-04-03T09:41:43.274Z,12.10
2019-04-03T09:44:10.713Z,12.20
2019-04-03T09:46:38.092Z,12.20
2019-04-03T09:49:05.783Z,12.30
2019-04-03T09:51:34.386Z,12.40
2019-04-03T09:54:01.612Z,12.40
2019-04-03T09:56:29.076Z,12.50
2019-04-03T09:58:56.760Z,12.60
2019-04-03T10:01:24.066Z,12.70
2019-04-03T10:03:53.903Z,12.70
2019-04-03T10:06:20.930Z,12.80
2019-04-03T10:08:48.252Z,12.80
2019-04-03T10:11:15.867Z,12.80
2019-04-03T10:13:43.965Z,12.80
2019-04-03T10:16:11.215Z,12.80
2019-04-03T10:18:39.082Z,12.90
2019-04-03T10:21:07.937Z,12.90
2019-04-03T10:23:35.459Z,12.90
2019-04-03T10:26:02.859Z,13.00
2019-04-03T10:28:30.239Z,13.00
2019-04-03T10:30:57.418Z,13.10
2019-04-03T10:33:24.799Z,13.20
2019-04-03T10:35:52.174Z,13.30
2019-04-03T10:38:19.535Z,13.20
2019-04-03T10:40:46.816Z,13.30
2019-04-03T10:43:14.273Z,13.40
2019-04-03T10:45:41.673Z,13.40
2019-04-03T10:48:09.129Z,13.50
2019-04-03T10:50:38.036Z,13.50
2019-04-03T10:53:05.667Z,13.50
2019-04-03T10:55:33.059Z,13.60
2019-04-03T10:58:01.898Z,13.70
2019-04-03T11:00:29.905Z,13.70
2019-04-03T11:02:57.356Z,13.80
2019-04-03T11:05:25.064Z,13.80
2019-04-03T11:07:52.525Z,13.80
2019-04-03T11:10:20.139Z,13.90
2019-04-03T11:12:47.661Z,14.00
2019-04-03T11:15:15.183Z,14.10
2019-04-03T11:17:42.829Z,14.10
2019-04-03T11:20:12.903Z,14.10
2019-04-03T11:22:42.732Z,14.20
2019-04-03T11:25:14.785Z,14.30
2019-04-03T11:27:44.532Z,14.40
2019-04-03T11:30:16.989Z,14.40
2019-04-03T11:32:42.121Z,14.50
2019-04-03T11:35:11.727Z,14.50
2019-04-03T11:37:38.906Z,14.40
2019-04-03T11:40:07.351Z,14.50
2019-04-03T11:42:34.701Z,14.40
2019-04-03T11:45:04.359Z,14.40
2019-04-03T11:47:31.346Z,14.40
2019-04-03T11:49:58.909Z,14.50
2019-04-03T11:52:26.554Z,14.50
2019-04-03T11:54:53.956Z,14.60
2019-04-03T11:57:21.345Z,14.50
2019-04-03T11:59:49.072Z,14.60
2019-04-03T12:02:16.511Z,14.60
2019-04-03T12:04:44.583Z,14.60
2019-04-03T12:07:12.133Z,14.60
2019-04-03T12:09:39.570Z,14.70
2019-04-03T12:12:08.936Z,14.60
2019-04-03T12:14:36.302Z,14.70
2019-04-03T12:17:03.627Z,14.80
2019-04-03T12:19:30.934Z,14.80
2019-04-03T12:21:58.162Z,14.80
2019-04-03T12:24:25.474Z,14.70
2019-04-03T12:26:55.433Z,14.70
2019-04-03T12:29:22.722Z,14.60
2019-04-03T12:31:50.446Z,14.60
2019-04-03T12:34:17.714Z,14.50
2019-04-03T12:36:46.229Z,14.50
2019-04-03T12:39:24.805Z,14.20
2019-04-03T12:41:54.933Z,14.00
2019-04-03T12:44:22.688Z,13.80
2019-04-03T12:46:50.064Z,13.60
2019-04-03T12:49:17.468Z,13.40
2019-04-03T12:51:45.052Z,13.40
2019-04-03T12:54:13.398Z,13.30
2019-04-03T12:56:41.518Z,13.20
2019-04-03T12:59:09.531Z,13.20
2019-04-03T13:01:37.785Z,13.00
2019-04-03T13:04:05.100Z,13.00
2019-04-03T13:06:32.565Z,12.80
2019-04-03T13:09:00.027Z,12.80
2019-04-03T13:11:27.364Z,12.70
2019-04-03T13:13:54.702Z,12.70
2019-04-03T13:16:22.588Z,12.70
2019-04-03T13:18:49.911Z,12.70
2019-04-03T13:21:17.531Z,12.60
2019-04-03T13:23:45.800Z,12.70
2019-04-03T13:26:13.500Z,12.70
2019-04-03T13:28:41.110Z,12.70
2019-04-03T13:31:08.794Z,12.70
2019-04-03T13:33:37.688Z,12.70
2019-04-03T13:36:06.176Z,12.70
2019-04-03T13:38:33.929Z,12.50
2019-04-03T13:41:04.491Z,12.60
2019-04-03T13:43:30.713Z,12.60
2019-04-03T13:45:58.004Z,12.50
2019-04-03T13:48:25.351Z,12.30
2019-04-03T13:50:54.884Z,12.30
2019-04-03T13:53:25.052Z,12.30
2019-04-03T13:55:52.267Z,12.40
2019-04-03T13:58:21.194Z,12.40
2019-04-03T14:00:59.406Z,12.20
2019-04-03T14:03:19.386Z,12.00
2019-04-03T14:05:47.296Z,12.10
2019-04-03T14:08:14.691Z,11.80
2019-04-03T14:10:41.946Z,11.60
2019-04-03T14:13:11.823Z,11.60
2019-04-03T14:15:41.011Z,11.50
2019-04-03T14:18:08.618Z,11.20
2019-04-03T14:20:36.544Z,11.00
2019-04-03T14:23:04.817Z,10.90
2019-04-03T14:25:37.145Z,10.80
2019-04-03T14:28:02.824Z,10.70
2019-04-03T14:30:30.583Z,10.60
2019-04-03T14:32:57.991Z,10.30
2019-04-03T14:35:55.263Z,10.30
2019-04-03T14:37:58.301Z,10.20
2019-04-03T14:40:23.820Z,10.00
2019-04-03T14:42:51.085Z,9.90
2019-04-03T14:45:18.787Z,9.80
2019-04-03T14:47:46.378Z,9.70
2019-04-03T14:50:13.920Z,9.70
2019-04-03T14:52:41.328Z,9.70
2019-04-03T14:55:19.784Z,9.60
2019-04-03T14:57:38.225Z,9.50
2019-04-03T15:00:23.935Z,9.50
2019-04-03T15:02:34.913Z,9.30
2019-04-03T15:05:02.314Z,9.10
2019-04-03T15:07:29.792Z,9.00
2019-04-03T15:09:57.231Z,8.90
2019-04-03T15:12:26.105Z,8.90
2019-04-03T15:14:54.463Z,8.90
2019-04-03T15:17:22.538Z,8.80
2019-04-03T15:19:49.881Z,8.60
2019-04-03T15:22:17.231Z,8.60
2019-04-03T15:24:44.658Z,8.60
2019-04-03T15:27:12.237Z,8.60
2019-04-03T15:29:39.658Z,8.60
2019-04-03T15:32:07.351Z,8.40
2019-04-03T15:34:34.675Z,8.20
2019-04-03T15:37:01.922Z,8.20
2019-04-03T15:39:29.917Z,8.00
2019-04-03T15:41:57.528Z,7.80
2019-04-03T15:44:27.391Z,8.00
2019-04-03T15:46:54.036Z,8.00
2019-04-03T15:49:21.393Z,7.90
2019-04-03T15:51:48.481Z,7.90
2019-04-03T15:54:16.141Z,7.80
2019-04-03T15:56:44.827Z,7.80
2019-04-03T15:59:13.062Z,7.60
2019-04-03T16:01:40.530Z,7.50
2019-04-03T16:04:08.024Z,7.40
2019-04-03T16:06:36.518Z,7.40
2019-04-03T16:09:06.851Z,7.30
2019-04-03T16:11:34.626Z,7.20
2019-04-03T16:14:07.374Z,7.20
2019-04-03T16:16:34.996Z,7.20
2019-04-03T16:19:08.877Z,7.10
2019-04-03T16:21:34.095Z,7.00
2019-04-03T16:24:01.629Z,7.00
2019-04-03T16:26:28.895Z,6.80
2019-04-03T16:28:56.907Z,6.90
2019-04-03T16:31:24.328Z,6.90
2019-04-03T16:33:51.676Z,6.90
2019-04-03T16:36:19.183Z,6.90
2019-04-03T16:38:46.882Z,6.90
2019-04-03T16:41:14.240Z,7.00
2019-04-03T16:43:41.588Z,6.90
2019-04-03T16:46:11.321Z,6.90
2019-04-03T16:48:39.226Z,6.80
2019-04-03T16:51:07.082Z,6.80
2019-04-03T16:53:34.570Z,6.90
2019-04-03T16:56:02.492Z,6.90
2019-04-03T16:58:31.299Z,6.80
2019-04-03T17:00:58.913Z,6.70
2019-04-03T17:03:27.404Z,6.70
2019-04-03T17:05:55.318Z,6.70
2019-04-03T17:08:26.813Z,6.70
2019-04-03T17:11:02.912Z,6.70
2019-04-03T17:13:33.781Z,6.70
2019-04-03T17:16:16.242Z,6.70
2019-04-03T17:18:55.066Z,6.80
2019-04-03T17:21:41.661Z,6.80
2019-04-03T17:24:16.035Z,6.80
2019-04-03T17:26:56.073Z,6.80
2019-04-03T17:29:27.782Z,6.80
2019-04-03T17:32:09.705Z,6.80
2019-04-03T17:34:43.036Z,6.80
2019-04-03T17:37:20.512Z,6.80
2019-04-03T17:39:52.472Z,6.80
2019-04-03T17:42:25.889Z,6.90
2019-04-03T17:45:01.273Z,6.90
2019-04-03T17:47:29.627Z,6.90
2019-04-03T17:50:06.211Z,6.90
2019-04-03T17:52:43.017Z,6.90
2019-04-03T17:55:17.449Z,6.90
2019-04-03T17:58:02.770Z,6.90
2019-04-03T18:00:22.094Z,6.90
2019-04-03T18:02:49.497Z,6.90
2019-04-03T18:05:17.551Z,6.90
2019-04-03T18:07:46.462Z,6.90
2019-04-03T18:10:22.119Z,6.90
2019-04-03T18:12:53.831Z,6.90
2019-04-03T18:15:27.242Z,6.90
2019-04-03T18:17:57.115Z,6.90
2019-04-03T18:20:29.195Z,7.00
2019-04-03T18:22:57.046Z,6.90
2019-04-03T18:25:29.542Z,6.90
2019-04-03T18:28:00.246Z,6.90
2019-04-03T18:30:27.707Z,6.90
2019-04-03T18:32:59.915Z,6.90
2019-04-03T18:35:30.735Z,6.80
2019-04-03T18:38:07.730Z,6.80
2019-04-03T18:40:40.227Z,6.90
2019-04-03T18:43:12.800Z,6.80
2019-04-03T18:45:40.267Z,6.80
2019-04-03T18:48:16.683Z,6.80
2019-04-03T18:50:46.038Z,6.80
2019-04-03T18:53:20.041Z,6.80
2019-04-03T18:55:56.802Z,6.80
2019-04-03T18:58:38.046Z,6.80
2019-04-03T19:01:05.578Z,6.80
2019-04-03T19:03:32.844Z,6.70
2019-04-03T19:06:00.198Z,6.60
2019-04-03T19:08:27.674Z,6.70
2019-04-03T19:11:02.610Z,6.70
2019-04-03T19:13:35.240Z,6.70
2019-04-03T19:16:02.637Z,6.80
2019-04-03T19:18:36.892Z,6.70
2019-04-03T19:21:04.241Z,6.70
2019-04-03T19:23:31.704Z,6.70
2019-04-03T19:26:03.383Z,6.60
2019-04-03T19:28:40.392Z,6.60
2019-04-03T19:31:13.616Z,6.50
2019-04-03T19:33:44.703Z,6.40
2019-04-03T19:36:20.294Z,6.40
2019-04-03T19:38:47.869Z,6.50
2019-04-03T19:41:15.244Z,6.40
2019-04-03T19:43:44.014Z,6.40
2019-04-03T19:46:15.120Z,6.40
2019-04-03T19:48:43.292Z,6.40
2019-04-03T19:51:10.792Z,6.40
2019-04-03T19:53:38.238Z,6.40
2019-04-03T19:56:05.648Z,6.40
2019-04-03T19:58:33.169Z,6.40
2019-04-03T20:01:03.638Z,6.40
2019-04-03T20:03:30.705Z,6.40
2019-04-03T20:05:58.058Z,6.40
2019-04-03T20:08:33.445Z,6.40
2019-04-03T20:11:04.907Z,6.40
2019-04-03T20:13:32.392Z,6.30
2019-04-03T20:16:00.780Z,6.30
2019-04-03T20:18:28.192Z,6.30
2019-04-03T20:20:55.480Z,6.40
2019-04-03T20:23:23.146Z,6.40
2019-04-03T20:25:50.472Z,6.40
2019-04-03T20:28:18.090Z,6.40
2019-04-03T20:30:45.844Z,6.40
2019-04-03T20:33:14.249Z,6.40
2019-04-03T20:35:41.730Z,6.40
2019-04-03T20:38:11.414Z,6.40
2019-04-03T20:40:56.646Z,6.40
2019-04-03T20:43:20.964Z,6.40
2019-04-03T20:45:49.794Z,6.30
2019-04-03T20:48:18.165Z,6.40
2019-04-03T20:50:46.201Z,6.40
2019-04-03T20:53:16.814Z,6.40
2019-04-03T20:55:42.878Z,6.40
2019-04-03T20:58:10.136Z,6.40
2019-04-03T21:00:37.548Z,6.30
2019-04-03T21:03:05.511Z,6.30
2019-04-03T21:05:32.898Z,6.30
2019-04-03T21:08:00.256Z,6.30
2019-04-03T21:10:27.717Z,6.30
2019-04-03T21:12:56.223Z,6.30
2019-04-03T21:15:23.713Z,6.30
2019-04-03T21:17:51.440Z,6.30
2019-04-03T21:20:18.701Z,6.30
2019-04-03T21:22:46.150Z,6.30
2019-04-03T21:25:13.723Z,6.30
2019-04-03T21:27:41.086Z,6.30
2019-04-03T21:30:12.238Z,6.40
2019-04-03T21:32:42.520Z,6.30
2019-04-03T21:35:09.881Z,6.30
2019-04-03T21:37:39.682Z,6.30
2019-04-03T21:40:09.318Z,6.30
2019-04-03T21:42:36.629Z,6.30
2019-04-03T21:45:07.297Z,6.30
2019-04-03T21:47:34.616Z,6.30
2019-04-03T21:50:03.611Z,6.30
2019-04-03T21:52:31.315Z,6.30
2019-04-03T21:54:59.071Z,6.30
2019-04-03T21:57:32.879Z,6.30
2019-04-03T22:00:00.436Z,6.30
2019-04-03T22:02:27.870Z,6.30
2019-04-03T22:04:55.227Z,6.30
2019-04-03T22:07:22.458Z,6.40
2019-04-03T22:10:15.408Z,6.30
2019-04-03T22:20:58.047Z,6.30
2019-04-03T22:23:25.248Z,6.30
2019-04-03T22:25:52.489Z,6.30
2019-04-03T22:28:19.735Z,6.30
2019-04-03T22:30:47.044Z,6.30
2019-04-03T22:33:15.737Z,6.30
2019-04-03T22:35:42.901Z,6.30
2019-04-03T22:38:10.266Z,6.30
2019-04-03T22:40:39.111Z,6.30
2019-04-03T22:43:06.993Z,6.30
2019-04-03T22:45:34.636Z,6.20
2019-04-03T22:48:02.108Z,6.20
2019-04-03T22:50:29.317Z,6.30
2019-04-03T22:52:56.821Z,6.20
2019-04-03T22:55:25.056Z,6.20
2019-04-03T22:57:52.287Z,6.20
2019-04-03T23:00:19.600Z,6.20
2019-04-03T23:02:47.088Z,6.20
2019-04-03T23:05:16.755Z,6.20
2019-04-03T23:07:46.012Z,6.10
2019-04-03T23:10:13.328Z,6.10
2019-04-03T23:12:40.872Z,6.10
2019-04-03T23:15:09.687Z,6.10
2019-04-03T23:17:37.135Z,6.10
2019-04-03T23:20:05.440Z,6.10
2019-04-03T23:22:33.018Z,6.10
2019-04-03T23:25:00.634Z,6.10
2019-04-03T23:27:28.271Z,6.10
2019-04-03T23:29:55.552Z,6.10
2019-04-03T23:32:22.846Z,6.10
2019-04-03T23:34:50.243Z,6.10
2019-04-03T23:37:17.490Z,6.10
2019-04-03T23:39:44.844Z,6.10
2019-04-03T23:42:12.344Z,6.10
2019-04-03T23:44:41.823Z,6.00
2019-04-03T23:47:08.848Z,6.00
2019-04-03T23:49:36.100Z,6.00
2019-04-03T23:52:03.765Z,5.90
2019-04-03T23:54:33.562Z,5.90
2019-04-03T23:57:00.648Z,5.90
2019-04-03T23:59:28.240Z,5.90
